Time;durP1;ratioP1;P1;durP2;ratioP2;P2;SDS_P1;SDS_P2;PMS_P1;PMS_P2;Temp;Humidity;BMP_temperature;BMP_pressure;BME280_temperature;BME280_humidity;BME280_pressure;Samples;Min_cycle;Max_cycle;Signal;HPM_P1;HPM_P2
2023/01/10 00:01:35;;;;;;;0.60;0.50;;;4.90;99.90;4.60;99711.00;;;;4894510;28;92941;-67
2023/01/10 00:04:01;;;;;;;0.50;0.50;;;4.90;99.90;4.60;99719.00;;;;4906817;28;93335;-67
2023/01/10 00:06:27;;;;;;;0.93;0.60;;;5.30;99.90;4.50;99713.00;;;;4910096;28;111141;-67
2023/01/10 00:08:52;;;;;;;0.77;0.53;;;4.70;99.90;4.50;99718.00;;;;4908291;28;98188;-67
2023/01/10 00:14:03;;;;;;;0.23;0.23;;;4.80;99.90;4.60;99727.00;;;;4907946;28;93720;-69
2023/01/10 00:16:28;;;;;;;0.97;0.63;;;4.70;99.90;4.60;99732.00;;;;4909987;28;110860;-68
2023/01/10 00:18:54;;;;;;;0.87;0.40;;;4.80;99.90;4.70;99743.00;;;;4905604;28;109705;-67
2023/01/10 00:21:19;;;;;;;1.60;0.70;;;4.90;99.90;4.80;99755.00;;;;4906854;28;119536;-67
2023/01/10 00:23:47;;;;;;;0.60;0.60;;;5.30;99.90;4.90;99757.00;;;;4905454;28;122276;-68
2023/01/10 00:26:13;;;;;;;1.60;1.13;;;5.70;99.90;4.90;99764.00;;;;4905929;28;93097;-66
2023/01/10 00:28:39;;;;;;;0.73;0.60;;;5.10;99.90;5.00;99767.00;;;;4903701;28;108365;-67
2023/01/10 00:31:05;;;;;;;0.90;0.70;;;5.10;99.90;5.10;99767.00;;;;4904576;28;122194;-67
2023/01/10 00:33:40;;;;;;;0.53;0.53;;;5.90;99.90;5.10;99776.00;;;;4892160;28;93089;-67
2023/01/10 00:36:08;;;;;;;0.70;0.57;;;5.30;99.90;5.10;99777.00;;;;4904862;28;109120;-67
2023/01/10 00:38:35;;;;;;;1.03;0.73;;;5.30;99.90;5.20;99782.00;;;;4888060;28;94131;-68
2023/01/10 00:41:01;;;;;;;0.87;0.80;;;5.70;99.90;5.20;99788.00;;;;4907056;28;93780;-68
2023/01/10 00:46:12;;;;;;;1.10;1.00;;;5.30;99.90;5.30;99795.00;;;;4906673;28;92841;-67
2023/01/10 00:48:37;;;;;;;1.80;0.87;;;5.40;99.90;5.30;99797.00;;;;4906123;28;108943;-67
2023/01/10 00:51:04;;;;;;;0.90;0.83;;;5.50;99.90;5.30;99800.00;;;;4906939;28;121531;-67
2023/01/10 00:53:30;;;;;;;1.30;0.60;;;5.50;99.90;5.30;99804.00;;;;4907660;28;93627;-67
2023/01/10 00:55:56;;;;;;;1.70;0.70;;;5.50;99.90;5.30;99813.00;;;;4909065;28;110764;-69
2023/01/10 00:58:22;;;;;;;1.57;1.03;;;5.50;99.90;5.40;99819.00;;;;4905427;28;98299;-67
2023/01/10 01:00:48;;;;;;;0.63;0.63;;;5.50;99.90;5.40;99827.00;;;;4908183;28;93156;-66
2023/01/10 01:03:16;;;;;;;0.70;0.67;;;5.80;99.90;5.40;99832.00;;;;4887568;28;104549;-68
2023/01/10 01:05:43;;;;;;;0.83;0.40;;;5.60;99.90;5.50;99836.00;;;;4893193;28;92979;-68
2023/01/10 01:08:11;;;;;;;0.93;0.50;;;5.60;99.90;5.50;99847.00;;;;4886482;28;92889;-66
2023/01/10 01:10:37;;;;;;;0.83;0.83;;;5.70;99.90;5.50;99841.00;;;;4902634;28;93638;-67
2023/01/10 01:13:16;;;;;;;0.70;0.70;;;5.60;99.90;5.50;99851.00;;;;4905160;28;92697;-66
2023/01/10 01:15:41;;;;;;;1.73;0.70;;;5.70;99.90;5.60;99859.00;;;;4908614;28;92745;-66
2023/01/10 01:18:10;;;;;;;0.90;0.80;;;5.60;99.90;5.60;99870.00;;;;4905349;28;107678;-66
2023/01/10 01:20:38;;;;;;;1.83;0.93;;;5.70;99.90;5.60;99877.00;;;;4903774;28;92886;-66
2023/01/10 01:23:04;;;;;;;0.67;0.67;;;5.70;99.90;5.60;99874.00;;;;4903517;28;92848;-66
2023/01/10 01:25:30;;;;;;;1.67;0.93;;;5.40;99.90;5.60;99871.00;;;;4906887;28;109974;-66
2023/01/10 01:27:56;;;;;;;1.03;0.60;;;5.80;99.90;5.60;99881.00;;;;4904960;28;100719;-66
2023/01/10 01:30:21;;;;;;;0.50;0.43;;;6.50;99.90;5.60;99878.00;;;;4888584;28;122266;-67
2023/01/10 01:32:47;;;;;;;2.37;0.80;;;5.90;99.90;5.60;99872.00;;;;4888691;28;122588;-66
2023/01/10 01:35:15;;;;;;;0.80;0.80;;;6.40;99.90;5.70;99886.00;;;;4907470;28;111081;-67
2023/01/10 01:37:42;;;;;;;1.27;0.67;;;5.80;99.90;5.70;99894.00;;;;4906653;28;92771;-66
2023/01/10 01:40:14;;;;;;;1.17;0.40;;;5.80;99.90;5.70;99896.00;;;;4905953;28;93110;-66
2023/01/10 01:42:40;;;;;;;0.50;0.50;;;5.80;99.90;5.70;99893.00;;;;4906054;28;93251;-66
2023/01/10 01:45:21;;;;;;;1.00;0.87;;;5.80;99.90;5.70;99899.00;;;;4907922;28;91997;-66
2023/01/10 01:48:31;;;;;;;0.50;0.47;;;5.90;99.90;5.80;99907.00;;;;4905178;28;92844;-68
2023/01/10 01:51:11;;;;;;;6.90;1.63;;;6.00;99.90;5.80;99918.00;;;;4906202;28;92959;-67
2023/01/10 01:53:57;;;;;;;1.20;1.10;;;6.30;99.90;5.80;99916.00;;;;4889848;28;110761;-67
2023/01/10 01:56:26;;;;;;;0.73;0.60;;;6.40;99.90;5.90;99910.00;;;;4906976;28;92993;-66
2023/01/10 01:59:09;;;;;;;1.33;1.13;;;6.70;99.90;5.90;99925.00;;;;4890543;28;98768;-67
2023/01/10 02:01:37;;;;;;;1.10;0.97;;;6.30;99.90;6.00;99923.00;;;;4890847;28;115107;-68
2023/01/10 02:04:14;;;;;;;1.13;0.93;;;6.10;99.90;6.00;99919.00;;;;4887383;28;108634;-66
2023/01/10 02:06:40;;;;;;;2.50;0.93;;;6.70;99.90;6.00;99926.00;;;;4902736;28;96428;-67
2023/01/10 02:09:22;;;;;;;2.83;1.57;;;5.90;99.90;6.00;99928.00;;;;4887737;28;107909;-66
2023/01/10 02:11:48;;;;;;;4.13;0.90;;;6.40;99.90;6.10;99925.00;;;;4891360;28;92663;-66
2023/01/10 02:14:15;;;;;;;6.27;1.13;;;6.20;99.90;6.10;99928.00;;;;4909352;28;93087;-65
2023/01/10 02:16:41;;;;;;;1.80;1.17;;;6.90;99.90;6.10;99925.00;;;;4908784;28;93079;-68
2023/01/10 02:19:25;;;;;;;2.07;0.87;;;6.70;99.90;6.10;99931.00;;;;4906218;28;93944;-66
2023/01/10 02:22:17;;;;;;;1.27;0.83;;;6.20;99.90;6.00;99931.00;;;;4903766;28;93144;-66
2023/01/10 02:25:20;;;;;;;1.43;0.90;;;6.20;99.90;6.00;99934.00;;;;4870292;28;93879;-68
2023/01/10 02:28:35;;;;;;;1.60;0.83;;;6.20;99.90;5.90;99935.00;;;;4903553;28;92851;-68
2023/01/10 02:31:29;;;;;;;1.53;1.10;;;6.10;99.90;5.90;99940.00;;;;4905486;28;92900;-67
2023/01/10 02:34:17;;;;;;;1.03;1.03;;;6.00;99.90;5.80;99939.00;;;;4900970;28;93413;-66
2023/01/10 02:37:27;;;;;;;4.77;0.90;;;6.10;99.90;5.80;99940.00;;;;4906167;28;92798;-66
2023/01/10 02:40:35;;;;;;;2.20;1.00;;;6.00;99.90;5.80;99938.00;;;;4909450;28;92380;-66
2023/01/10 02:43:17;;;;;;;4.07;1.43;;;6.00;99.90;5.80;99943.00;;;;4883262;28;98744;-67
2023/01/10 02:46:02;;;;;;;2.13;1.37;;;6.10;99.90;5.80;99952.00;;;;5048630;27;80873;-68
2023/01/10 02:48:28;;;;;;;1.13;0.90;;;5.90;99.90;5.80;99943.00;;;;5032373;27;82217;-67
2023/01/10 02:51:07;;;;;;;2.20;1.27;;;6.70;99.90;5.80;99957.00;;;;5032778;27;110208;-66
2023/01/10 02:53:40;;;;;;;1.53;0.77;;;5.90;99.90;5.80;99963.00;;;;5029777;27;98360;-66
2023/01/10 02:56:44;;;;;;;1.70;1.00;;;6.60;99.90;5.80;99958.00;;;;5032405;27;84420;-66
2023/01/10 02:59:53;;;;;;;2.50;0.97;;;6.00;99.90;5.80;99968.00;;;;5031595;27;96551;-67
2023/01/10 03:02:40;;;;;;;0.77;0.67;;;6.00;99.90;5.80;99977.00;;;;5039521;27;80962;-66
2023/01/10 03:05:34;;;;;;;1.90;0.97;;;6.70;99.90;5.80;99979.00;;;;5039168;27;81158;-67
2023/01/10 03:08:17;;;;;;;1.50;1.13;;;6.00;99.90;5.90;99987.00;;;;5032809;27;102041;-66
2023/01/10 03:10:57;;;;;;;0.90;0.63;;;6.10;99.90;5.90;99984.00;;;;5034279;27;91287;-67
2023/01/10 03:13:48;;;;;;;0.90;0.90;;;6.00;99.90;5.90;99984.00;;;;5035664;27;96912;-69
2023/01/10 03:16:18;;;;;;;1.43;1.00;;;6.10;99.90;5.90;99987.00;;;;5034653;27;81255;-68
2023/01/10 03:18:55;;;;;;;2.93;1.27;;;6.80;99.90;6.00;99998.00;;;;5033108;27;104346;-67
2023/01/10 03:21:23;;;;;;;1.50;1.17;;;6.10;99.90;5.90;99999.00;;;;5034309;27;81974;-66
2023/01/10 03:23:53;;;;;;;1.77;1.10;;;6.60;99.90;6.00;100012.00;;;;5032540;27;83405;-67
2023/01/10 03:26:29;;;;;;;1.13;0.90;;;6.80;99.90;5.90;100013.00;;;;5032900;27;101600;-67
2023/01/10 03:29:05;;;;;;;1.63;1.30;;;6.80;99.90;5.90;100027.00;;;;5047335;27;104079;-67
2023/01/10 03:31:41;;;;;;;2.83;1.27;;;6.70;99.90;6.00;100027.00;;;;5048098;27;87617;-66
2023/01/10 03:34:08;;;;;;;5.53;1.20;;;6.10;99.90;6.00;100035.00;;;;5048901;27;93997;-67
2023/01/10 03:36:48;;;;;;;1.70;0.80;;;6.60;99.90;6.00;100039.00;;;;5049613;27;110424;-68
2023/01/10 03:39:40;;;;;;;0.83;0.53;;;5.50;99.90;6.00;100046.00;;;;5047045;27;96829;-67
2023/01/10 03:42:19;;;;;;;2.80;1.30;;;6.20;99.90;5.90;100045.00;;;;5046191;27;101273;-67
2023/01/10 03:45:00;;;;;;;1.70;0.93;;;6.10;99.90;5.90;100061.00;;;;5043641;27;81939;-66
2023/01/10 03:47:44;;;;;;;2.17;1.10;;;6.00;99.90;5.90;100083.00;;;;5044496;27;100452;-66
2023/01/10 03:50:19;;;;;;;2.50;1.77;;;6.40;99.90;5.90;100076.00;;;;5045638;27;82299;-68
2023/01/10 03:52:45;;;;;;;3.80;1.33;;;6.00;99.90;5.90;100084.00;;;;5034851;27;106258;-67
2023/01/10 03:55:15;;;;;;;2.33;1.50;;;6.60;99.90;5.80;100091.00;;;;5042905;27;83618;-67
2023/01/10 03:57:41;;;;;;;1.37;1.20;;;6.00;99.90;5.80;100093.00;;;;5029739;27;81035;-66
2023/01/10 04:00:09;;;;;;;2.07;1.27;;;6.50;99.90;5.80;100097.00;;;;5029712;27;110257;-67
2023/01/10 04:02:34;;;;;;;2.23;1.27;;;5.90;99.90;5.70;100095.00;;;;5028143;27;91561;-67
2023/01/10 04:05:00;;;;;;;2.90;1.30;;;5.90;99.90;5.70;100101.00;;;;5028022;27;109530;-67
2023/01/10 04:07:26;;;;;;;1.80;1.13;;;6.00;99.90;5.70;100097.00;;;;5032675;27;107017;-67
2023/01/10 04:09:52;;;;;;;1.00;0.90;;;5.80;99.90;5.70;100106.00;;;;5034369;27;81386;-67
2023/01/10 04:12:18;;;;;;;1.47;1.30;;;6.30;99.90;5.70;100122.00;;;;5029667;27;103868;-66
2023/01/10 04:14:46;;;;;;;2.70;1.47;;;6.40;99.90;5.70;100131.00;;;;5026473;27;109864;-66
2023/01/10 04:17:14;;;;;;;2.63;0.93;;;5.90;99.90;5.80;100127.00;;;;5033942;27;81233;-65
2023/01/10 04:19:40;;;;;;;2.07;1.27;;;5.90;99.90;5.80;100130.00;;;;5035033;27;84064;-67
2023/01/10 04:22:07;;;;;;;2.50;2.30;;;5.80;99.90;5.70;100126.00;;;;5034729;27;81157;-65
2023/01/10 04:24:32;;;;;;;1.50;1.23;;;5.90;99.90;5.80;100136.00;;;;5033443;27;103970;-67
2023/01/10 04:26:58;;;;;;;2.33;1.30;;;5.90;99.90;5.80;100145.00;;;;5032264;27;109556;-66
2023/01/10 04:29:24;;;;;;;1.30;0.80;;;5.90;99.90;5.80;100147.00;;;;5028603;27;103146;-67
2023/01/10 04:31:50;;;;;;;2.17;1.40;;;6.40;99.90;5.80;100153.00;;;;5036122;27;81555;-67
2023/01/10 04:34:16;;;;;;;2.30;1.70;;;6.00;99.90;5.80;100162.00;;;;5033013;27;82052;-67
2023/01/10 04:36:41;;;;;;;3.87;1.50;;;6.50;99.90;5.80;100167.00;;;;5027229;27;109233;-66
2023/01/10 04:39:07;;;;;;;4.13;1.47;;;6.00;99.90;5.90;100172.00;;;;5032062;27;83517;-68
2023/01/10 04:41:33;;;;;;;2.80;1.63;;;6.00;99.90;5.90;100177.00;;;;5027337;27;109834;-65
2023/01/10 04:43:59;;;;;;;3.33;1.93;;;6.30;99.90;5.90;100179.00;;;;5034001;27;81909;-66
2023/01/10 04:46:25;;;;;;;1.80;1.30;;;6.00;99.90;5.80;100182.00;;;;5029538;27;81122;-65
2023/01/10 04:48:51;;;;;;;2.57;1.70;;;6.70;99.90;5.80;100188.00;;;;5035130;27;95106;-66
2023/01/10 04:51:17;;;;;;;3.40;2.27;;;6.00;99.90;5.80;100205.00;;;;5031346;27;81275;-66
2023/01/10 04:53:42;;;;;;;2.63;1.57;;;6.00;99.90;5.70;100197.00;;;;5032881;27;110644;-68
2023/01/10 04:56:15;;;;;;;1.63;1.40;;;5.90;99.90;5.70;100198.00;;;;5034962;27;107331;-67
2023/01/10 04:58:40;;;;;;;3.80;1.87;;;5.90;99.90;5.60;100203.00;;;;5028902;27;81330;-66
2023/01/10 05:01:13;;;;;;;3.33;1.73;;;5.80;99.90;5.60;100214.00;;;;5033601;27;109126;-65
2023/01/10 05:03:40;;;;;;;5.60;1.90;;;5.80;99.90;5.60;100223.00;;;;5035494;27;98394;-66
2023/01/10 05:06:06;;;;;;;3.33;1.60;;;5.80;99.90;5.60;100223.00;;;;5034134;27;81001;-66
2023/01/10 05:08:32;;;;;;;2.07;1.17;;;5.70;99.90;5.50;100228.00;;;;5029927;27;81277;-68
2023/01/10 05:10:58;;;;;;;1.50;1.40;;;5.70;99.90;5.50;100224.00;;;;5031362;27;81790;-66
2023/01/10 05:13:25;;;;;;;2.03;1.40;;;5.60;99.90;5.50;100238.00;;;;5029315;27;102967;-67
2023/01/10 05:15:55;;;;;;;2.47;1.60;;;5.70;99.90;5.50;100245.00;;;;5029572;27;81868;-66
2023/01/10 05:18:21;;;;;;;5.57;1.70;;;5.70;99.90;5.60;100252.00;;;;5029623;27;82552;-68
2023/01/10 05:20:46;;;;;;;2.37;1.50;;;6.20;99.90;5.60;100261.00;;;;5029464;27;102609;-69
2023/01/10 05:23:12;;;;;;;2.27;1.77;;;5.70;99.90;5.50;100261.00;;;;5038100;27;90158;-69
2023/01/10 05:25:38;;;;;;;3.07;1.77;;;5.80;99.90;5.50;100266.00;;;;5030182;27;108430;-69
2023/01/10 05:28:03;;;;;;;2.00;1.63;;;5.70;99.90;5.50;100269.00;;;;5032731;27;108948;-69
2023/01/10 05:30:29;;;;;;;2.70;1.97;;;5.70;99.90;5.40;100269.00;;;;5029244;27;110408;-70
2023/01/10 05:32:55;;;;;;;2.87;1.50;;;5.60;99.90;5.40;100270.00;;;;5029978;27;85261;-69
2023/01/10 05:35:20;;;;;;;6.50;2.17;;;5.50;99.90;5.40;100283.00;;;;5034206;27;95319;-70
2023/01/10 05:37:46;;;;;;;2.47;1.73;;;6.00;99.90;5.30;100279.00;;;;5034713;27;112264;-70
2023/01/10 05:40:12;;;;;;;2.70;1.70;;;6.20;99.90;5.30;100283.00;;;;5031316;27;110755;-70
2023/01/10 05:42:37;;;;;;;2.93;1.83;;;5.50;99.90;5.30;100284.00;;;;5027077;27;81028;-69
2023/01/10 05:45:04;;;;;;;1.77;1.63;;;5.50;99.90;5.30;100299.00;;;;5030022;27;108806;-69
2023/01/10 05:47:30;;;;;;;1.57;1.47;;;4.80;99.90;5.30;100299.00;;;;5011849;27;103379;-67
2023/01/10 05:49:55;;;;;;;2.03;1.63;;;6.20;99.90;5.30;100312.00;;;;5032087;27;88510;-70
2023/01/10 05:52:21;;;;;;;4.73;2.00;;;5.50;99.90;5.30;100314.00;;;;5026341;27;110467;-70
2023/01/10 05:54:47;;;;;;;2.77;1.83;;;6.10;99.90;5.30;100323.00;;;;5031804;27;80986;-70
2023/01/10 05:57:12;;;;;;;3.90;2.07;;;5.50;99.90;5.20;100325.00;;;;5029337;27;110311;-70
2023/01/10 05:59:38;;;;;;;2.63;1.57;;;5.40;99.90;5.20;100336.00;;;;5031515;27;101884;-69
2023/01/10 06:02:04;;;;;;;6.30;1.90;;;6.10;99.90;5.20;100332.00;;;;5037111;27;109498;-69
2023/01/10 06:04:29;;;;;;;2.37;2.17;;;5.30;99.90;5.20;100339.00;;;;5032381;27;107796;-68
2023/01/10 06:06:55;;;;;;;3.13;2.50;;;5.40;99.90;5.30;100343.00;;;;5036564;27;108600;-68
2023/01/10 06:09:21;;;;;;;2.00;1.83;;;5.40;99.90;5.30;100352.00;;;;5036687;27;111154;-70
2023/01/10 06:11:46;;;;;;;8.00;2.07;;;5.40;99.90;5.30;100357.00;;;;5037752;27;109484;-70
2023/01/10 06:14:12;;;;;;;6.73;2.00;;;5.40;99.90;5.30;100356.00;;;;5041169;27;108582;-69
2023/01/10 06:16:38;;;;;;;1.70;1.47;;;5.50;99.90;5.30;100354.00;;;;5037158;27;81985;-70
2023/01/10 06:19:03;;;;;;;2.30;2.10;;;5.90;99.90;5.30;100364.00;;;;5034954;27;110131;-70
2023/01/10 06:21:29;;;;;;;1.80;1.43;;;5.50;99.90;5.20;100371.00;;;;5038391;27;108067;-69
2023/01/10 06:23:55;;;;;;;2.07;1.93;;;5.50;99.90;5.20;100368.00;;;;5037514;27;80845;-69
2023/01/10 06:26:20;;;;;;;3.67;2.73;;;5.30;99.90;5.20;100376.00;;;;5035129;27;106529;-68
2023/01/10 06:28:46;;;;;;;12.93;1.90;;;5.40;99.90;5.20;100370.00;;;;5036195;27;86228;-68
2023/01/10 06:31:13;;;;;;;2.50;1.90;;;5.50;99.90;5.10;100375.00;;;;5036241;27;110698;-72
2023/01/10 06:33:40;;;;;;;5.17;2.93;;;5.30;99.90;5.10;100377.00;;;;5037208;27;80974;-71
2023/01/10 06:36:06;;;;;;;6.00;2.77;;;5.30;99.90;5.10;100388.00;;;;5041168;27;81595;-74
2023/01/10 06:38:32;;;;;;;3.47;2.50;;;5.30;99.90;5.10;100403.00;;;;5035744;27;82262;-74
2023/01/10 06:40:57;;;;;;;2.10;1.90;;;5.30;99.90;5.10;100403.00;;;;5039558;27;110757;-74
2023/01/10 06:43:23;;;;;;;5.90;2.97;;;5.30;99.90;5.10;100401.00;;;;5037451;27;108966;-74
2023/01/10 06:45:49;;;;;;;4.27;2.23;;;5.30;99.90;5.10;100417.00;;;;5032987;27;92135;-74
2023/01/10 06:48:14;;;;;;;5.30;2.77;;;5.50;99.90;5.10;100426.00;;;;5032792;27;97912;-73
2023/01/10 06:50:40;;;;;;;3.53;2.77;;;5.30;99.90;5.10;100419.00;;;;5032285;27;109905;-74
2023/01/10 06:53:06;;;;;;;4.40;2.83;;;5.30;99.90;5.10;100434.00;;;;5034491;27;109442;-74
2023/01/10 06:55:31;;;;;;;3.07;2.77;;;5.30;99.90;5.10;100435.00;;;;5034328;27;82917;-74
2023/01/10 06:58:00;;;;;;;3.77;2.10;;;5.20;99.90;5.10;100444.00;;;;5028047;27;83493;-74
2023/01/10 07:00:27;;;;;;;4.03;2.87;;;5.30;99.90;5.10;100442.00;;;;5033266;27;83715;-74
2023/01/10 07:02:56;;;;;;;5.13;3.07;;;6.10;99.90;5.10;100453.00;;;;5033377;27;82646;-72
2023/01/10 07:05:22;;;;;;;3.67;2.80;;;5.20;99.90;5.10;100451.00;;;;5034219;27;83641;-73
2023/01/10 07:07:48;;;;;;;8.30;3.07;;;6.00;99.90;5.10;100442.00;;;;5031874;27;83012;-73
2023/01/10 07:10:14;;;;;;;5.03;2.63;;;5.40;99.90;5.10;100449.00;;;;5028681;27;110398;-73
2023/01/10 07:12:39;;;;;;;4.73;2.40;;;5.90;99.90;5.10;100441.00;;;;5028161;27;99632;-73
2023/01/10 07:15:06;;;;;;;2.90;2.27;;;5.30;99.90;5.10;100464.00;;;;5025809;27;110072;-73
2023/01/10 07:17:31;;;;;;;2.43;2.20;;;5.30;99.90;5.10;100468.00;;;;5026794;27;85043;-73
2023/01/10 07:19:57;;;;;;;4.13;2.47;;;5.30;99.90;5.10;100478.00;;;;5030558;27;108680;-73
2023/01/10 07:22:23;;;;;;;2.60;2.33;;;5.30;99.90;5.10;100482.00;;;;5028571;27;104983;-73
2023/01/10 07:24:48;;;;;;;3.77;3.47;;;5.80;99.90;5.10;100480.00;;;;5028534;27;112963;-72
2023/01/10 07:27:14;;;;;;;4.50;3.20;;;5.50;99.90;5.10;100475.00;;;;5032381;27;113537;-73
2023/01/10 07:29:40;;;;;;;2.77;2.50;;;5.70;99.90;5.10;100482.00;;;;5031029;27;83780;-70
2023/01/10 07:32:05;;;;;;;5.23;2.73;;;5.90;99.90;5.10;100484.00;;;;5031051;27;108797;-70
2023/01/10 07:34:31;;;;;;;3.53;2.77;;;5.20;99.90;5.00;100493.00;;;;5037202;27;113141;-72
2023/01/10 07:36:57;;;;;;;4.40;2.80;;;5.30;99.90;5.00;100502.00;;;;5019609;27;99953;-71
2023/01/10 07:39:22;;;;;;;3.63;3.13;;;5.20;99.90;5.00;100512.00;;;;5030697;27;111112;-69
2023/01/10 07:41:49;;;;;;;3.47;2.57;;;5.20;99.90;5.00;100508.00;;;;5033945;27;109309;-72
2023/01/10 07:44:15;;;;;;;4.10;3.10;;;5.10;99.90;5.00;100517.00;;;;5030781;27;85278;-71
2023/01/10 07:46:41;;;;;;;3.23;2.43;;;5.20;99.90;5.00;100518.00;;;;5031689;27;110950;-71
2023/01/10 07:49:07;;;;;;;4.70;2.53;;;5.20;99.90;5.00;100524.00;;;;5032410;27;109303;-71
2023/01/10 07:51:32;;;;;;;5.20;3.40;;;5.20;99.90;5.10;100519.00;;;;5028573;27;109543;-68
2023/01/10 07:53:58;;;;;;;4.50;3.20;;;5.30;99.90;5.10;100526.00;;;;5030305;27;113019;-68
2023/01/10 07:56:24;;;;;;;4.27;3.10;;;5.40;99.90;5.10;100527.00;;;;5034613;27;103741;-68
2023/01/10 07:58:50;;;;;;;5.10;2.87;;;5.30;99.90;5.20;100538.00;;;;5034427;27;82862;-68
2023/01/10 08:01:15;;;;;;;7.50;3.43;;;5.30;99.90;5.10;100537.00;;;;5034361;27;108362;-69
2023/01/10 08:03:41;;;;;;;3.37;2.93;;;5.30;99.90;5.10;100544.00;;;;5035550;27;83005;-69
2023/01/10 08:06:09;;;;;;;3.50;2.70;;;5.30;99.90;5.10;100529.00;;;;5034324;27;112278;-68
2023/01/10 08:08:36;;;;;;;3.27;2.70;;;5.50;99.90;5.10;100544.00;;;;5032380;27;86234;-71
2023/01/10 08:11:02;;;;;;;4.53;2.23;;;5.30;99.90;5.20;100555.00;;;;5031995;27;82020;-69
2023/01/10 08:13:29;;;;;;;4.20;2.57;;;5.40;99.90;5.20;100558.00;;;;5037727;27;82814;-69
2023/01/10 08:15:55;;;;;;;4.67;2.73;;;5.40;99.90;5.20;100567.00;;;;5021135;27;83176;-69
2023/01/10 08:18:21;;;;;;;5.77;3.40;;;5.40;99.90;5.30;100568.00;;;;5035595;27;93523;-69
2023/01/10 08:20:53;;;;;;;5.03;2.67;;;5.40;99.90;5.30;100567.00;;;;5032318;27;94844;-70
2023/01/10 08:23:19;;;;;;;2.73;2.50;;;5.40;99.90;5.30;100574.00;;;;5038036;27;83036;-69
2023/01/10 08:25:45;;;;;;;5.60;2.63;;;5.50;99.90;5.30;100569.00;;;;5036514;27;113364;-67
2023/01/10 08:28:12;;;;;;;2.97;2.60;;;5.40;99.90;5.30;100570.00;;;;5034386;27;82931;-68
2023/01/10 08:30:38;;;;;;;3.40;2.67;;;5.50;99.90;5.40;100581.00;;;;5038452;27;84836;-68
2023/01/10 08:33:06;;;;;;;4.10;2.17;;;5.50;99.90;5.40;100586.00;;;;5038627;27;87244;-67
2023/01/10 08:35:37;;;;;;;3.17;2.27;;;6.30;99.90;5.40;100595.00;;;;5033434;27;83519;-67
2023/01/10 08:38:03;;;;;;;3.73;2.60;;;5.50;99.90;5.50;100601.00;;;;5037663;27;82778;-67
2023/01/10 08:40:29;;;;;;;2.97;2.57;;;5.60;99.90;5.50;100601.00;;;;5034939;27;88632;-68
2023/01/10 08:43:08;;;;;;;5.77;2.40;;;6.30;99.90;5.60;100611.00;;;;5032349;27;114128;-68
2023/01/10 08:45:36;;;;;;;5.17;2.57;;;5.70;99.90;5.60;100614.00;;;;5033209;27;84439;-68
2023/01/10 08:48:06;;;;;;;3.70;2.67;;;6.40;99.90;5.70;100625.00;;;;5031741;27;82688;-67
2023/01/10 08:50:32;;;;;;;2.10;1.87;;;5.80;99.90;5.70;100618.00;;;;5031968;27;82836;-67
2023/01/10 08:52:58;;;;;;;3.20;2.40;;;5.90;99.90;5.80;100618.00;;;;5035056;27;113248;-67
2023/01/10 08:55:25;;;;;;;4.43;2.53;;;6.00;99.90;5.90;100626.00;;;;5031696;27;83146;-66
2023/01/10 08:57:50;;;;;;;5.93;2.83;;;6.70;99.90;5.90;100634.00;;;;5036597;27;82761;-68
2023/01/10 09:00:16;;;;;;;2.40;2.13;;;6.50;99.90;6.00;100632.00;;;;5034885;27;108934;-66
2023/01/10 09:02:42;;;;;;;5.97;2.47;;;6.10;99.90;6.10;100632.00;;;;5030562;27;83792;-66
2023/01/10 09:05:09;;;;;;;2.93;2.67;;;6.20;99.90;6.10;100637.00;;;;5031562;27;99412;-66
2023/01/10 09:07:35;;;;;;;3.40;2.40;;;6.90;99.90;6.20;100650.00;;;;5036954;27;83826;-68
2023/01/10 09:10:01;;;;;;;8.83;2.67;;;6.70;99.90;6.20;100660.00;;;;5029312;27;94234;-66
2023/01/10 09:15:11;;;;;;;3.00;2.27;;;7.00;99.90;6.20;100652.00;;;;5027487;27;82739;-65
2023/01/10 09:17:37;;;;;;;3.47;1.73;;;6.40;99.90;6.20;100660.00;;;;5029696;27;111074;-67
2023/01/10 09:20:08;;;;;;;4.13;2.13;;;6.30;99.90;6.30;100668.00;;;;5027841;27;107728;-66
2023/01/10 09:22:37;;;;;;;3.17;2.83;;;6.40;99.90;6.40;100666.00;;;;5032224;27;82955;-66
2023/01/10 09:25:04;;;;;;;4.17;2.43;;;7.10;99.90;6.50;100672.00;;;;5029230;27;104644;-65
2023/01/10 09:27:30;;;;;;;3.90;2.60;;;6.60;99.90;6.80;100680.00;;;;5030937;27;82675;-66
2023/01/10 09:29:55;;;;;;;4.43;2.23;;;6.80;99.90;7.00;100683.00;;;;5032722;27;83597;-66
2023/01/10 09:32:21;;;;;;;4.83;1.97;;;7.50;99.90;7.20;100678.00;;;;5027724;27;113232;-67
2023/01/10 09:34:47;;;;;;;4.00;2.07;;;7.30;99.90;7.50;100688.00;;;;5029062;27;113272;-65
2023/01/10 09:37:12;;;;;;;6.47;2.83;;;7.40;99.90;7.60;100693.00;;;;5029440;27;82549;-66
2023/01/10 09:39:38;;;;;;;3.50;2.13;;;7.70;99.90;7.70;100704.00;;;;5032789;27;106053;-66
2023/01/10 09:42:27;;;;;;;3.67;2.60;;;7.80;99.90;7.80;100702.00;;;;5030630;27;113045;-65
2023/01/10 09:45:37;;;;;;;3.43;2.47;;;7.90;99.90;7.80;100695.00;;;;5030351;27;83323;-67
2023/01/10 09:48:40;;;;;;;6.03;1.90;;;8.00;99.90;7.70;100697.00;;;;5029049;27;83294;-66
2023/01/10 09:51:19;;;;;;;2.90;2.20;;;7.90;99.90;7.70;100704.00;;;;5005744;27;82077;-66
2023/01/10 09:53:45;;;;;;;1.90;1.70;;;7.90;99.90;7.70;100705.00;;;;5028524;27;82731;-67
2023/01/10 09:56:14;;;;;;;4.47;2.37;;;7.80;99.90;7.70;100710.00;;;;5028184;27;112001;-67
2023/01/10 09:58:41;;;;;;;3.10;2.10;;;7.80;99.90;7.70;100702.00;;;;5032241;27;109990;-67
2023/01/10 10:01:18;;;;;;;3.07;2.00;;;7.80;99.90;7.60;100719.00;;;;5037492;27;108381;-66
2023/01/10 10:04:16;;;;;;;6.67;2.63;;;7.80;99.90;7.60;100712.00;;;;5033809;27;83258;-67
2023/01/10 10:06:42;;;;;;;4.57;2.10;;;7.70;99.90;7.60;100722.00;;;;5032459;27;105405;-67
2023/01/10 10:09:14;;;;;;;2.00;1.40;;;7.70;99.90;7.60;100732.00;;;;5031951;27;110643;-68
2023/01/10 10:12:21;;;;;;;4.50;2.10;;;7.70;99.90;7.60;100706.00;;;;5031166;27;82719;-66
2023/01/10 10:15:08;;;;;;;2.97;1.30;;;7.80;99.90;7.60;100716.00;;;;5032412;27;83981;-66
2023/01/10 10:18:03;;;;;;;2.27;1.63;;;7.70;99.90;7.60;100714.00;;;;5037763;27;82074;-67
2023/01/10 10:20:50;;;;;;;6.73;1.57;;;7.70;99.90;7.60;100715.00;;;;5033340;27;82809;-68
2023/01/10 10:24:03;;;;;;;1.30;1.20;;;7.70;99.90;7.60;100711.00;;;;5036486;27;83430;-67
2023/01/10 10:26:58;;;;;;;2.80;1.47;;;8.30;99.90;7.70;100713.00;;;;5032949;27;83828;-66
2023/01/10 10:29:53;;;;;;;3.50;1.83;;;7.80;99.90;7.70;100721.00;;;;5036873;27;82850;-68
2023/01/10 10:32:49;;;;;;;1.20;0.97;;;7.90;99.90;7.60;100716.00;;;;5019203;27;82670;-66
2023/01/10 10:35:36;;;;;;;6.03;2.13;;;7.70;99.90;7.60;100727.00;;;;5030439;27;82794;-68
2023/01/10 10:38:11;;;;;;;3.07;1.90;;;7.70;99.90;7.50;100727.00;;;;5034735;27;83108;-68
2023/01/10 10:40:41;;;;;;;2.80;1.90;;;7.70;99.90;7.40;100721.00;;;;5021204;27;105343;-67
2023/01/10 10:43:20;;;;;;;4.37;1.90;;;7.60;99.90;7.40;100724.00;;;;5032834;27;82745;-67
2023/01/10 10:46:09;;;;;;;1.83;1.60;;;7.60;99.90;7.40;100718.00;;;;5029167;27;82073;-66
2023/01/10 10:49:00;;;;;;;2.40;1.87;;;7.50;99.90;7.40;100722.00;;;;5016827;27;103385;-69
2023/01/10 10:51:42;;;;;;;3.50;1.50;;;7.50;99.90;7.50;100730.00;;;;5031466;27;82997;-66
2023/01/10 10:54:12;;;;;;;3.80;1.50;;;7.10;99.90;7.70;100713.00;;;;5029789;27;83798;-65
2023/01/10 10:56:38;;;;;;;2.40;1.80;;;7.70;99.90;8.00;100723.00;;;;5031524;27;82768;-67
2023/01/10 10:59:04;;;;;;;2.17;1.50;;;8.00;99.90;8.30;100725.00;;;;5029179;27;112738;-68
2023/01/10 11:01:30;;;;;;;1.07;0.97;;;8.30;99.90;8.50;100729.00;;;;5013718;27;114457;-66
2023/01/10 11:04:01;;;;;;;2.73;1.43;;;8.50;99.90;8.60;100736.00;;;;5032179;27;110428;-66
2023/01/10 11:06:30;;;;;;;0.90;0.80;;;8.60;99.90;8.50;100746.00;;;;5033536;27;94754;-67
2023/01/10 11:09:01;;;;;;;5.60;1.70;;;8.60;99.90;8.50;100745.00;;;;5015775;27;98603;-66
2023/01/10 11:11:31;;;;;;;4.30;1.30;;;8.60;99.90;8.50;100756.00;;;;5036122;27;82703;-66
2023/01/10 11:14:06;;;;;;;4.73;1.10;;;8.60;99.90;8.40;100754.00;;;;5040044;27;92845;-66
2023/01/10 11:16:38;;;;;;;1.60;1.07;;;8.60;99.90;8.40;100756.00;;;;5032578;27;91033;-66
2023/01/10 11:19:24;;;;;;;0.83;0.83;;;8.60;99.90;8.40;100756.00;;;;5030032;27;86924;-65
2023/01/10 11:21:58;;;;;;;0.90;0.70;;;8.60;99.90;8.50;100762.00;;;;5030099;27;101731;-66
2023/01/10 11:24:35;;;;;;;4.00;1.00;;;8.60;99.90;8.60;100760.00;;;;5031994;27;83035;-66
2023/01/10 11:27:35;;;;;;;1.20;1.10;;;8.70;99.90;8.50;100767.00;;;;5030165;27;82597;-68